createdAt,value
2019-02-04T00:00:08.470Z,7.45
2019-02-04T00:02:37.266Z,7.75
2019-02-04T00:05:06.451Z,8.40
2019-02-04T00:07:35.175Z,7.33
2019-02-04T00:10:05.772Z,6.62
2019-02-04T00:12:34.638Z,6.40
2019-02-04T00:15:03.357Z,6.92
2019-02-04T00:17:32.066Z,6.12
2019-02-04T00:20:00.798Z,7.25
2019-02-04T00:22:29.490Z,6.05
2019-02-04T00:24:58.348Z,6.15
2019-02-04T00:27:27.179Z,5.75
2019-02-04T00:29:55.944Z,5.92
2019-02-04T00:32:24.862Z,5.37
2019-02-04T00:34:53.607Z,6.20
2019-02-04T00:37:22.409Z,6.40
2019-02-04T00:39:51.171Z,7.12
2019-02-04T00:42:20.016Z,5.90
2019-02-04T00:44:48.731Z,5.67
2019-02-04T00:47:19.875Z,5.90
2019-02-04T00:49:48.726Z,5.78
2019-02-04T00:52:17.530Z,6.33
2019-02-04T00:54:46.246Z,6.97
2019-02-04T00:57:14.990Z,6.45
2019-02-04T00:59:43.714Z,5.83
2019-02-04T01:02:12.913Z,7.03
2019-02-04T01:04:41.754Z,6.70
2019-02-04T01:07:10.546Z,6.50
2019-02-04T01:09:39.288Z,6.22
2019-02-04T01:12:08.027Z,6.78
2019-02-04T01:14:36.888Z,7.10
2019-02-04T01:17:05.629Z,6.58
2019-02-04T01:19:34.444Z,6.55
2019-02-04T01:22:03.210Z,6.72
2019-02-04T01:24:31.991Z,6.35
2019-02-04T01:27:00.847Z,6.62
2019-02-04T01:29:29.630Z,6.55
2019-02-04T01:31:58.384Z,6.37
2019-02-04T01:34:27.142Z,7.78
2019-02-04T01:36:55.918Z,7.35
2019-02-04T01:39:24.681Z,7.12
2019-02-04T01:41:53.397Z,5.85
2019-02-04T01:44:24.414Z,5.95
2019-02-04T01:46:53.506Z,6.33
2019-02-04T01:49:22.267Z,6.87
2019-02-04T01:51:51.011Z,6.70
2019-02-04T01:54:19.814Z,7.30
2019-02-04T01:56:48.598Z,7.08
2019-02-04T01:59:17.485Z,6.33
2019-02-04T02:01:46.570Z,7.45
2019-02-04T02:04:15.341Z,7.10
2019-02-04T02:06:44.059Z,7.00
2019-02-04T02:09:24.129Z,7.22
2019-02-04T02:11:52.941Z,6.47
2019-02-04T02:14:22.040Z,6.35
2019-02-04T02:16:50.787Z,6.62
2019-02-04T02:19:19.530Z,6.75
2019-02-04T02:21:48.406Z,6.58
2019-02-04T02:24:17.127Z,7.22
2019-02-04T02:26:45.853Z,6.58
2019-02-04T02:29:14.877Z,6.97
2019-02-04T02:32:02.919Z,7.40
2019-02-04T02:34:31.819Z,6.75
2019-02-04T02:37:00.643Z,7.03
2019-02-04T02:39:30.552Z,7.08
2019-02-04T02:41:59.386Z,6.90
2019-02-04T02:44:28.234Z,7.17
2019-02-04T02:46:57.025Z,7.58
2019-02-04T02:49:25.769Z,6.50
2019-02-04T02:51:54.495Z,6.85
2019-02-04T02:54:23.315Z,6.12
2019-02-04T02:56:52.222Z,7.00
2019-02-04T02:59:20.963Z,7.12
2019-02-04T03:01:51.083Z,6.35
2019-02-04T03:04:19.890Z,6.72
2019-02-04T03:06:48.602Z,6.80
2019-02-04T03:09:17.403Z,7.17
2019-02-04T03:11:46.493Z,6.87
2019-02-04T03:14:15.222Z,6.53
2019-02-04T03:16:43.927Z,6.42
2019-02-04T03:19:12.686Z,7.22
2019-02-04T03:21:41.452Z,7.58
2019-02-04T03:24:10.281Z,7.05
2019-02-04T03:26:38.996Z,7.00
2019-02-04T03:29:07.691Z,6.42
2019-02-04T03:31:39.283Z,7.10
2019-02-04T03:34:06.922Z,6.55
2019-02-04T03:36:35.657Z,7.05
2019-02-04T03:39:07.301Z,7.00
2019-02-04T03:41:36.022Z,6.62
2019-02-04T03:44:04.787Z,6.80
2019-02-04T03:46:33.632Z,6.42
2019-02-04T03:49:02.419Z,5.62
2019-02-04T03:51:31.169Z,6.47
2019-02-04T03:54:00.390Z,5.22
2019-02-04T03:56:29.110Z,5.70
2019-02-04T03:58:57.855Z,5.28
2019-02-04T04:01:26.643Z,5.10
2019-02-04T04:03:55.372Z,5.53
2019-02-04T04:06:24.134Z,4.97
2019-02-04T04:08:53.117Z,5.08
2019-02-04T04:11:21.867Z,4.50
2019-02-04T04:13:50.588Z,4.87
2019-02-04T04:16:19.462Z,5.08
2019-02-04T04:18:48.202Z,5.00
2019-02-04T04:21:17.019Z,5.00
2019-02-04T04:23:45.926Z,4.15
2019-02-04T04:26:14.747Z,4.08
2019-02-04T04:28:43.496Z,4.75
2019-02-04T04:31:12.182Z,4.87
2019-02-04T04:33:41.002Z,5.10
2019-02-04T04:36:11.994Z,4.92
2019-02-04T04:38:41.124Z,5.08
2019-02-04T04:41:09.908Z,5.35
2019-02-04T04:43:38.646Z,4.70
2019-02-04T04:46:07.454Z,5.10
2019-02-04T04:48:37.034Z,5.30
2019-02-04T04:51:05.738Z,5.17
2019-02-04T04:53:34.781Z,4.58
2019-02-04T04:56:03.525Z,4.95
2019-02-04T04:58:32.350Z,5.03
2019-02-04T05:01:01.188Z,4.45
2019-02-04T05:03:29.991Z,4.92
2019-02-04T05:05:58.685Z,5.97
2019-02-04T05:08:27.778Z,5.08
2019-02-04T05:10:56.550Z,5.22
2019-02-04T05:13:25.292Z,5.50
2019-02-04T05:15:54.018Z,4.80
2019-02-04T05:18:22.754Z,5.47
2019-02-04T05:20:51.548Z,5.42
2019-02-04T05:23:20.698Z,5.47
2019-02-04T05:25:49.429Z,5.90
2019-02-04T05:28:18.132Z,5.33
2019-02-04T05:30:46.834Z,5.05
2019-02-04T05:33:15.590Z,6.03
2019-02-04T05:35:44.378Z,5.92
2019-02-04T05:38:13.538Z,5.33
2019-02-04T05:40:43.176Z,5.45
2019-02-04T05:43:12.102Z,5.70
2019-02-04T05:45:40.878Z,5.08
2019-02-04T05:48:09.661Z,5.50
2019-02-04T05:50:38.447Z,5.00
2019-02-04T05:53:07.569Z,5.47
2019-02-04T05:55:36.288Z,5.65
2019-02-04T05:58:05.163Z,5.95
2019-02-04T06:00:43.358Z,4.97
2019-02-04T06:03:12.159Z,5.45
2019-02-04T06:05:41.638Z,5.50
2019-02-04T06:08:10.447Z,5.45
2019-02-04T06:10:39.246Z,5.92
2019-02-04T06:13:07.960Z,5.90
2019-02-04T06:15:36.705Z,6.80
2019-02-04T06:18:05.663Z,6.53
2019-02-04T06:20:34.821Z,5.97
2019-02-04T06:23:03.593Z,6.12
2019-02-04T06:25:32.374Z,5.95
2019-02-04T06:28:04.072Z,5.37
2019-02-04T06:30:32.838Z,6.20
2019-02-04T06:33:01.560Z,6.00
2019-02-04T06:35:30.557Z,6.50
2019-02-04T06:37:59.324Z,5.03
2019-02-04T06:40:28.140Z,5.78
2019-02-04T06:42:56.970Z,5.40
2019-02-04T06:45:25.708Z,5.28
2019-02-04T06:47:54.506Z,5.20
2019-02-04T06:50:23.675Z,5.78
2019-02-04T06:52:52.450Z,5.87
2019-02-04T06:55:24.195Z,5.08
2019-02-04T06:57:54.281Z,4.87
2019-02-04T07:00:25.079Z,5.87
2019-02-04T07:02:53.814Z,4.90
2019-02-04T07:05:22.539Z,5.58
2019-02-04T07:07:51.358Z,5.17
2019-02-04T07:10:21.622Z,5.60
2019-02-04T07:12:50.347Z,5.92
2019-02-04T07:15:19.135Z,5.47
2019-02-04T07:17:47.906Z,6.17
2019-02-04T07:20:22.235Z,5.47
2019-02-04T07:22:53.923Z,5.47
2019-02-04T07:25:23.601Z,5.72
2019-02-04T07:27:52.386Z,6.00
2019-02-04T07:30:23.068Z,5.80
2019-02-04T07:32:52.261Z,5.50
2019-02-04T07:35:21.055Z,5.35
2019-02-04T07:37:49.934Z,6.62
2019-02-04T07:40:20.820Z,5.62
2019-02-04T07:42:49.951Z,6.12
2019-02-04T07:45:18.758Z,5.30
2019-02-04T07:47:47.855Z,5.83
2019-02-04T07:50:16.744Z,6.10
2019-02-04T07:52:45.474Z,6.65
2019-02-04T07:55:14.304Z,6.80
2019-02-04T07:57:43.028Z,7.45
2019-02-04T08:00:17.657Z,6.67
2019-02-04T08:02:46.885Z,7.85
2019-02-04T08:05:15.668Z,7.12
2019-02-04T08:07:44.396Z,6.30
2019-02-04T08:10:13.244Z,6.72
2019-02-04T08:12:41.958Z,6.12
2019-02-04T08:15:15.890Z,6.47
2019-02-04T08:17:44.650Z,6.55
2019-02-04T08:20:15.556Z,6.45
2019-02-04T08:22:44.279Z,7.17
2019-02-04T08:25:13.490Z,6.75
2019-02-04T08:27:42.351Z,6.25
2019-02-04T08:30:20.706Z,6.42
2019-02-04T08:32:49.474Z,5.78
2019-02-04T08:35:18.171Z,5.62
2019-02-04T08:37:46.948Z,6.30
2019-02-04T08:40:18.106Z,6.40
2019-02-04T08:42:46.889Z,6.42
2019-02-04T08:45:16.023Z,6.08
2019-02-04T08:47:44.892Z,5.75
2019-02-04T08:50:15.757Z,5.08
2019-02-04T08:52:44.460Z,5.92
2019-02-04T08:55:13.287Z,6.45
2019-02-04T08:57:42.672Z,6.05
2019-02-04T09:00:14.676Z,6.25
2019-02-04T09:02:43.380Z,4.55
2019-02-04T09:05:12.786Z,5.37
2019-02-04T09:07:41.579Z,5.50
2019-02-04T09:10:14.830Z,5.97
2019-02-04T09:12:42.406Z,5.40
2019-02-04T09:15:12.339Z,5.58
2019-02-04T09:17:41.133Z,5.22
2019-02-04T09:20:11.618Z,6.40
2019-02-04T09:22:40.496Z,6.03
2019-02-04T09:25:12.076Z,5.90
2019-02-04T09:27:40.970Z,5.55
2019-02-04T09:30:19.360Z,6.03
2019-02-04T09:32:51.079Z,5.60
2019-02-04T09:35:23.483Z,5.90
2019-02-04T09:37:53.559Z,5.87
2019-02-04T09:40:25.034Z,6.12
2019-02-04T09:42:53.865Z,6.28
2019-02-04T09:45:25.463Z,5.03
2019-02-04T09:47:53.178Z,5.67
2019-02-04T09:50:22.687Z,5.87
2019-02-04T09:52:51.463Z,6.20
2019-02-04T09:55:22.647Z,5.92
2019-02-04T09:57:51.425Z,5.95
2019-02-04T10:00:22.550Z,5.22
2019-02-04T10:02:51.307Z,6.08
2019-02-04T10:05:20.190Z,5.47
2019-02-04T10:07:48.946Z,5.47
2019-02-04T10:10:19.874Z,6.47
2019-02-04T10:12:48.696Z,7.00
2019-02-04T10:15:20.126Z,6.15
2019-02-04T10:17:48.931Z,6.65
2019-02-04T10:20:17.713Z,5.58
2019-02-04T10:22:46.471Z,5.37
2019-02-04T10:25:17.947Z,5.97
2019-02-04T10:27:46.721Z,6.15
2019-02-04T10:30:17.824Z,6.55
2019-02-04T10:32:46.713Z,6.92
2019-02-04T10:35:17.184Z,6.97
2019-02-04T10:37:46.701Z,5.50
2019-02-04T10:40:19.709Z,5.33
2019-02-04T10:42:48.458Z,5.95
2019-02-04T10:45:17.766Z,5.83
2019-02-04T10:47:46.564Z,6.20
2019-02-04T10:50:26.418Z,6.28
2019-02-04T10:52:55.183Z,6.33
2019-02-04T10:55:24.023Z,5.97
2019-02-04T10:57:52.809Z,6.55
2019-02-04T11:00:23.500Z,5.40
2019-02-04T11:02:52.301Z,7.03
2019-02-04T11:05:23.516Z,6.40
2019-02-04T11:07:52.449Z,7.20
2019-02-04T11:10:23.487Z,6.47
2019-02-04T11:12:52.338Z,7.22
2019-02-04T11:15:22.345Z,7.83
2019-02-04T11:17:52.826Z,7.75
2019-02-04T11:20:23.766Z,8.15
2019-02-04T11:22:52.689Z,8.30
2019-02-04T11:25:21.506Z,8.90
2019-02-04T11:27:50.361Z,8.98
2019-02-04T11:30:30.764Z,9.30
2019-02-04T11:32:59.756Z,9.08
2019-02-04T11:35:28.610Z,10.35
2019-02-04T11:37:57.568Z,9.85
2019-02-04T11:40:29.983Z,10.00
2019-02-04T11:42:58.785Z,10.10
2019-02-04T11:45:28.943Z,9.85
2019-02-04T11:47:57.878Z,10.85
2019-02-04T11:50:26.726Z,9.95
2019-02-04T11:52:55.518Z,10.53
2019-02-04T11:55:24.721Z,12.98
2019-02-04T11:57:53.534Z,11.50
2019-02-04T12:00:24.514Z,10.85
2019-02-04T12:02:53.879Z,11.05
2019-02-04T12:05:22.775Z,11.75
2019-02-04T12:07:51.619Z,11.48
2019-02-04T12:10:25.742Z,13.30
2019-02-04T12:12:54.730Z,11.73
2019-02-04T12:15:23.718Z,13.13
2019-02-04T12:17:52.495Z,12.43
2019-02-04T12:20:21.311Z,14.78
2019-02-04T12:22:50.060Z,14.33
2019-02-04T12:25:22.743Z,13.88
2019-02-04T12:27:51.650Z,14.65
2019-02-04T12:30:23.022Z,14.78
2019-02-04T12:32:51.767Z,15.68
2019-02-04T12:35:20.558Z,13.95
2019-02-04T12:37:49.367Z,14.90
2019-02-04T12:40:18.164Z,15.20
2019-02-04T12:42:47.016Z,14.28
2019-02-04T12:45:18.630Z,16.40
2019-02-04T12:47:48.295Z,14.33
2019-02-04T12:50:18.907Z,15.38
2019-02-04T12:52:50.570Z,13.90
2019-02-04T12:55:22.209Z,16.48
2019-02-04T12:57:50.907Z,15.15
2019-02-04T13:00:21.525Z,14.53
2019-02-04T13:02:50.289Z,15.72
2019-02-04T13:05:27.530Z,14.93
2019-02-04T13:07:56.298Z,14.58
2019-02-04T13:10:25.429Z,14.95
2019-02-04T13:12:54.216Z,15.63
2019-02-04T13:15:23.066Z,14.18
2019-02-04T13:17:51.818Z,14.28
2019-02-04T13:20:20.654Z,13.95
2019-02-04T13:22:49.378Z,16.32
2019-02-04T13:25:20.703Z,15.38
2019-02-04T13:27:49.544Z,15.40
2019-02-04T13:30:20.656Z,15.18
2019-02-04T13:32:49.506Z,16.62
2019-02-04T13:35:18.448Z,15.83
2019-02-04T13:37:47.379Z,15.18
2019-02-04T13:40:22.146Z,15.58
2019-02-04T13:42:52.713Z,14.65
2019-02-04T13:45:21.431Z,17.07
2019-02-04T13:47:50.226Z,16.45
2019-02-04T13:50:19.978Z,14.70
2019-02-04T13:52:48.899Z,15.88
2019-02-04T13:55:20.420Z,15.55
2019-02-04T13:57:49.310Z,15.68
2019-02-04T14:00:19.256Z,15.68
2019-02-04T14:02:58.542Z,16.07
2019-02-04T14:05:18.410Z,14.98
2019-02-04T14:07:47.147Z,16.02
2019-02-04T14:10:28.421Z,17.95
2019-02-04T14:12:57.178Z,16.40
2019-02-04T14:15:26.092Z,15.18
2019-02-04T14:17:56.694Z,16.12
2019-02-04T14:20:25.625Z,17.25
2019-02-04T14:22:54.550Z,17.70
2019-02-04T14:25:23.300Z,16.23
2019-02-04T14:27:54.382Z,16.50
2019-02-04T14:30:28.341Z,16.70
2019-02-04T14:32:57.183Z,15.88
2019-02-04T14:35:25.954Z,17.15
2019-02-04T14:37:54.907Z,16.93
2019-02-04T14:40:23.850Z,16.70
2019-02-04T14:42:56.227Z,15.70
2019-02-04T14:46:06.236Z,16.30
2019-02-04T14:49:31.547Z,14.40
2019-02-04T14:52:28.624Z,16.02
2019-02-04T14:55:46.794Z,15.65
2019-02-04T14:58:23.997Z,14.85
2019-02-04T15:01:29.137Z,15.83
2019-02-04T15:04:48.517Z,15.20
2019-02-04T15:07:56.098Z,15.35
2019-02-04T15:10:59.092Z,15.48
2019-02-04T15:13:50.088Z,15.40
2019-02-04T15:16:47.154Z,15.00
2019-02-04T15:20:08.266Z,15.72
2019-02-04T15:23:15.554Z,15.28
2019-02-04T15:26:01.969Z,14.90
2019-02-04T15:29:11.262Z,14.28
2019-02-04T15:32:05.714Z,14.10
2019-02-04T15:35:16.230Z,14.58
2019-02-04T15:38:22.318Z,15.78
2019-02-04T15:41:13.927Z,16.23
2019-02-04T15:43:56.530Z,14.75
2019-02-04T15:47:10.191Z,14.47
2019-02-04T15:50:35.865Z,14.55
2019-02-04T15:53:06.230Z,15.38
2019-02-04T15:55:35.247Z,15.32
2019-02-04T15:58:04.160Z,15.58
2019-02-04T16:00:32.893Z,17.67
2019-02-04T16:03:02.092Z,15.68
2019-02-04T16:05:30.994Z,17.55
2019-02-04T16:08:02.305Z,15.72
2019-02-04T16:10:31.046Z,17.20
2019-02-04T16:12:59.768Z,15.45
2019-02-04T16:15:28.481Z,17.65
2019-02-04T16:17:57.685Z,16.32
2019-02-04T16:20:26.502Z,18.48
2019-02-04T16:23:14.527Z,17.60
2019-02-04T16:25:43.274Z,18.37
2019-02-04T16:28:12.059Z,16.93
2019-02-04T16:30:40.831Z,18.12
2019-02-04T16:33:09.548Z,18.12
2019-02-04T16:35:38.338Z,18.25
2019-02-04T16:38:07.838Z,20.20
2019-02-04T16:40:36.638Z,19.62
2019-02-04T16:43:05.453Z,21.73
2019-02-04T16:45:36.890Z,20.92
2019-02-04T16:48:05.614Z,20.55
2019-02-04T16:50:34.334Z,20.35
2019-02-04T16:53:10.679Z,20.25
2019-02-04T16:55:33.662Z,20.95
2019-02-04T16:58:02.483Z,20.95
2019-02-04T17:00:31.961Z,21.73
2019-02-04T17:03:00.702Z,24.02
2019-02-04T17:05:29.538Z,22.32
2019-02-04T17:07:58.413Z,27.52
2019-02-04T17:10:27.326Z,24.18
2019-02-04T17:12:56.072Z,25.92
2019-02-04T17:15:27.751Z,28.38
2019-02-04T17:17:56.531Z,25.15
2019-02-04T17:20:30.535Z,27.95
2019-02-04T17:22:59.408Z,27.48
2019-02-04T17:25:28.333Z,27.20
2019-02-04T17:27:57.234Z,26.93
2019-02-04T17:30:26.050Z,28.83
2019-02-04T17:32:55.103Z,27.48
2019-02-04T17:35:24.385Z,26.57
2019-02-04T17:37:53.141Z,27.27
2019-02-04T17:40:22.134Z,27.73
2019-02-04T17:42:51.270Z,29.02
2019-02-04T17:45:20.118Z,31.55
2019-02-04T17:47:49.464Z,30.02
2019-02-04T17:50:19.101Z,28.40
2019-02-04T17:52:47.857Z,27.82
2019-02-04T17:55:18.688Z,28.75
2019-02-04T17:57:48.471Z,29.72
2019-02-04T18:00:27.342Z,30.30
2019-02-04T18:02:56.200Z,27.13
2019-02-04T18:05:24.994Z,29.00
2019-02-04T18:07:53.848Z,29.80
2019-02-04T18:10:22.634Z,27.50
2019-02-04T18:12:51.846Z,24.30
2019-02-04T18:15:20.718Z,25.17
2019-02-04T18:17:49.470Z,27.02
2019-02-04T18:20:18.337Z,26.40
2019-02-04T18:22:47.202Z,27.42
2019-02-04T18:25:16.131Z,27.52
2019-02-04T18:27:44.920Z,28.25
2019-02-04T18:30:16.116Z,28.23
2019-02-04T18:32:45.067Z,25.90
2019-02-04T18:35:15.563Z,27.87
2019-02-04T18:37:44.351Z,28.60
2019-02-04T18:40:14.248Z,27.25
2019-02-04T18:42:43.327Z,27.13
2019-02-04T18:45:17.479Z,28.80
2019-02-04T18:47:46.402Z,27.67
2019-02-04T18:50:15.714Z,29.90
2019-02-04T18:52:44.934Z,30.30
2019-02-04T18:55:16.631Z,28.42
2019-02-04T18:57:45.597Z,30.75
2019-02-04T19:00:17.239Z,29.48
2019-02-04T19:02:48.986Z,30.60
2019-02-04T19:05:18.116Z,30.10
2019-02-04T19:07:46.959Z,31.27
2019-02-04T19:10:17.230Z,31.57
2019-02-04T19:12:45.990Z,30.70
2019-02-04T19:15:16.718Z,29.90
2019-02-04T19:17:45.546Z,30.17
2019-02-04T19:20:16.658Z,34.08
2019-02-04T19:22:45.455Z,31.75
2019-02-04T19:25:15.078Z,34.18
2019-02-04T19:27:43.995Z,34.48
2019-02-04T19:30:19.511Z,32.38
2019-02-04T19:32:48.478Z,32.70
2019-02-04T19:35:17.526Z,35.15
2019-02-04T19:37:46.354Z,35.17
2019-02-04T19:40:15.305Z,35.58
2019-02-04T19:42:44.071Z,34.00
2019-02-04T19:45:15.385Z,34.08
2019-02-04T19:47:44.187Z,35.38
2019-02-04T19:50:19.599Z,35.30
2019-02-04T19:52:48.422Z,33.35
2019-02-04T19:55:17.150Z,37.65
2019-02-04T19:57:45.867Z,35.80
2019-02-04T20:00:20.509Z,37.42
2019-02-04T20:03:00.125Z,36.93
2019-02-04T20:05:29.095Z,37.10
2019-02-04T20:07:57.810Z,40.88
2019-02-04T20:10:27.246Z,40.03
2019-02-04T20:12:56.007Z,37.93
2019-02-04T20:15:26.776Z,37.83
2019-02-04T20:17:55.699Z,37.03
2019-02-04T20:20:24.947Z,39.80
2019-02-04T20:22:53.880Z,40.30
2019-02-04T20:25:24.565Z,42.23
2019-02-04T20:27:53.308Z,39.90
2019-02-04T20:30:25.195Z,41.05
2019-02-04T20:32:53.970Z,40.73
2019-02-04T20:35:22.690Z,41.60
2019-02-04T20:37:51.470Z,40.30
2019-02-04T20:40:21.043Z,39.75
2019-02-04T20:42:49.979Z,41.20
2019-02-04T20:45:19.022Z,42.05
2019-02-04T20:47:48.095Z,41.70
2019-02-04T20:50:19.819Z,45.25
2019-02-04T20:52:48.602Z,45.23
2019-02-04T20:55:17.619Z,42.90
2019-02-04T20:57:46.325Z,44.30
2019-02-04T21:00:18.262Z,43.90
2019-02-04T21:02:46.989Z,45.15
2019-02-04T21:05:15.986Z,45.52
2019-02-04T21:07:44.812Z,46.20
2019-02-04T21:10:16.020Z,46.37
2019-02-04T21:12:44.886Z,46.70
2019-02-04T21:15:14.443Z,44.93
2019-02-04T21:17:43.380Z,43.73
2019-02-04T21:20:14.948Z,44.20
2019-02-04T21:22:43.766Z,44.23
2019-02-04T21:25:12.508Z,45.00
2019-02-04T21:27:41.347Z,45.23
2019-02-04T21:30:22.250Z,44.00
2019-02-04T21:32:51.026Z,44.93
2019-02-04T21:35:19.778Z,47.27
2019-02-04T21:37:48.566Z,46.75
2019-02-04T21:40:17.447Z,46.48
2019-02-04T21:42:48.924Z,44.63
2019-02-04T21:45:19.236Z,47.85
2019-02-04T21:47:47.982Z,46.85
2019-02-04T21:50:18.456Z,47.33
2019-02-04T21:52:47.321Z,46.98
2019-02-04T21:55:16.294Z,46.98
2019-02-04T21:57:47.648Z,44.95
2019-02-04T22:00:18.949Z,46.20
2019-02-04T22:02:47.760Z,45.38
2019-02-04T22:05:17.321Z,46.35
2019-02-04T22:07:46.966Z,42.08
2019-02-04T22:10:19.510Z,45.38
2019-02-04T22:12:48.306Z,42.48
2019-02-04T22:15:19.895Z,42.55
2019-02-04T22:17:48.820Z,42.90
2019-02-04T22:20:18.087Z,43.20
2019-02-04T22:22:47.035Z,43.08
2019-02-04T22:25:19.718Z,45.33
2019-02-04T22:27:47.499Z,43.45
2019-02-04T22:30:20.947Z,45.60
2019-02-04T22:32:49.783Z,43.08
2019-02-04T22:35:18.612Z,44.70
2019-02-04T22:37:47.350Z,43.48
2019-02-04T22:40:19.036Z,43.60
2019-02-04T22:42:47.890Z,43.38
2019-02-04T22:45:16.742Z,42.73
2019-02-04T22:47:45.478Z,41.63
2019-02-04T22:50:25.952Z,43.15
2019-02-04T22:52:54.670Z,42.60
2019-02-04T22:55:31.708Z,43.23
2019-02-04T22:57:54.260Z,42.67
2019-02-04T23:00:50.900Z,41.15
2019-02-04T23:03:21.120Z,42.25
2019-02-04T23:05:49.910Z,42.65
2019-02-04T23:08:20.831Z,41.00
2019-02-04T23:10:50.447Z,43.48
2019-02-04T23:13:19.203Z,43.30
2019-02-04T23:15:48.099Z,44.15
2019-02-04T23:18:17.002Z,42.30
2019-02-04T23:20:45.882Z,42.93
2019-02-04T23:23:14.602Z,41.88
2019-02-04T23:25:43.935Z,42.20
2019-02-04T23:28:12.786Z,43.52
2019-02-04T23:30:41.642Z,44.80
2019-02-04T23:33:10.370Z,43.05
2019-02-04T23:35:39.126Z,41.88
2019-02-04T23:38:07.937Z,40.78
2019-02-04T23:40:36.660Z,41.68
2019-02-04T23:43:05.498Z,42.78
2019-02-04T23:45:34.342Z,42.83
2019-02-04T23:48:03.190Z,42.73
2019-02-04T23:50:31.962Z,42.55
2019-02-04T23:53:00.670Z,43.08
2019-02-04T23:55:29.485Z,42.90
2019-02-04T23:57:58.333Z,41.65
